Time;durP1;ratioP1;P1;durP2;ratioP2;P2;SDS_P1;SDS_P2;PMS_P1;PMS_P2;Temp;Humidity;BMP_temperature;BMP_pressure;BME280_temperature;BME280_humidity;BME280_pressure;Samples;Min_cycle;Max_cycle;Signal;HPM_P1;HPM_P2
2022/05/14 00:01:37;;;;;;;;;;;13.50;99.90;;;;;;5073363;28;19912;-77
2022/05/14 00:04:03;;;;;;;;;;;13.50;99.90;;;;;;5073381;28;19912;-77
2022/05/14 00:06:30;;;;;;;;;;;13.40;99.90;;;;;;5073016;28;19908;-77
2022/05/14 00:08:55;;;;;;;;;;;13.40;99.90;;;;;;5073316;28;20274;-77
2022/05/14 00:14:06;;;;;;;;;;;13.30;99.90;;;;;;5073392;28;19912;-76
2022/05/14 00:16:34;;;;;;;;;;;13.30;99.90;;;;;;5073081;28;20041;-76
2022/05/14 00:19:01;;;;;;;;;;;13.20;99.90;;;;;;5073084;28;20033;-77
2022/05/14 00:21:27;;;;;;;;;;;13.20;99.90;;;;;;5072985;28;20305;-76
2022/05/14 00:23:52;;;;;;;;;;;13.20;99.90;;;;;;5071477;28;19904;-76
2022/05/14 00:26:18;;;;;;;;;;;13.10;99.90;;;;;;5072389;28;19959;-76
2022/05/14 00:28:45;;;;;;;;;;;13.00;99.90;;;;;;5072812;28;19904;-77
2022/05/14 00:31:11;;;;;;;;;;;13.00;99.90;;;;;;5072873;28;19908;-77
2022/05/14 00:33:36;;;;;;;;;;;13.00;99.90;;;;;;5071464;28;19927;-76
2022/05/14 00:36:02;;;;;;;;;;;13.00;99.90;;;;;;5072672;28;20417;-77
2022/05/14 00:38:29;;;;;;;;;;;12.90;99.90;;;;;;5072603;28;20271;-77
2022/05/14 00:40:56;;;;;;;;;;;12.90;99.90;;;;;;5072694;28;19909;-77
2022/05/14 00:43:22;;;;;;;;;;;12.80;99.90;;;;;;5072530;28;19912;-78
2022/05/14 00:45:52;;;;;;;;;;;12.70;99.90;;;;;;5072665;28;20300;-77
2022/05/14 00:48:18;;;;;;;;;;;12.70;99.90;;;;;;5072566;28;20338;-77
2022/05/14 00:50:48;;;;;;;;;;;12.60;99.90;;;;;;5072340;28;19983;-76
2022/05/14 00:53:23;;;;;;;;;;;12.60;99.90;;;;;;5071335;28;20256;-76
2022/05/14 00:55:51;;;;;;;;;;;12.50;99.90;;;;;;5072607;28;20440;-77
2022/05/14 00:58:25;;;;;;;;;;;12.50;99.90;;;;;;5070654;28;20011;-77
2022/05/14 01:00:50;;;;;;;;;;;12.50;99.90;;;;;;5072509;28;19973;-76
2022/05/14 01:03:16;;;;;;;;;;;12.40;99.90;;;;;;5071187;28;20335;-76
2022/05/14 01:05:42;;;;;;;;;;;12.40;99.90;;;;;;5072648;28;19908;-76
2022/05/14 01:08:07;;;;;;;;;;;12.40;99.90;;;;;;5072195;28;19904;-77
2022/05/14 01:10:37;;;;;;;;;;;12.40;99.90;;;;;;5072362;28;20363;-77
2022/05/14 01:13:03;;;;;;;;;;;12.40;99.90;;;;;;5072337;28;20244;-77
2022/05/14 01:15:48;;;;;;;;;;;12.40;99.90;;;;;;5072338;28;19904;-76
2022/05/14 01:18:13;;;;;;;;;;;12.30;99.90;;;;;;5087760;28;20370;-77
2022/05/14 01:20:39;;;;;;;;;;;12.30;99.90;;;;;;5072344;28;20008;-76
2022/05/14 01:23:23;;;;;;;;;;;12.20;99.90;;;;;;5072393;28;19915;-76
2022/05/14 01:28:42;;;;;;;;;;;12.20;99.90;;;;;;5072086;28;19962;-76
2022/05/14 01:31:07;;;;;;;;;;;12.10;99.90;;;;;;5071002;28;20488;-77
2022/05/14 01:33:34;;;;;;;;;;;12.10;99.90;;;;;;5072126;28;20414;-77
2022/05/14 01:36:00;;;;;;;;;;;12.10;99.90;;;;;;5073048;28;19911;-77
2022/05/14 01:38:26;;;;;;;;;;;12.10;99.90;;;;;;5074781;28;19919;-77
2022/05/14 01:40:51;;;;;;;;;;;12.00;99.90;;;;;;5076090;28;19908;-77
2022/05/14 01:43:17;;;;;;;;;;;11.90;99.90;;;;;;5075947;28;19911;-77
2022/05/14 01:45:42;;;;;;;;;;;11.90;99.90;;;;;;5076096;28;19904;-77
2022/05/14 01:48:08;;;;;;;;;;;11.90;99.90;;;;;;5075823;28;19904;-77
2022/05/14 01:50:34;;;;;;;;;;;11.80;99.90;;;;;;5075574;28;20910;-76
2022/05/14 01:53:00;;;;;;;;;;;11.80;99.90;;;;;;5075820;28;19921;-76
2022/05/14 01:55:25;;;;;;;;;;;11.80;99.90;;;;;;5075790;28;19904;-78
2022/05/14 01:57:52;;;;;;;;;;;11.80;99.90;;;;;;5075474;28;20236;-76
2022/05/14 02:00:18;;;;;;;;;;;11.80;99.90;;;;;;5075602;28;19908;-77
2022/05/14 02:02:44;;;;;;;;;;;11.70;99.90;;;;;;5074286;28;19912;-77
2022/05/14 02:05:09;;;;;;;;;;;11.70;99.90;;;;;;5075429;28;19908;-76
2022/05/14 02:07:35;;;;;;;;;;;11.70;99.90;;;;;;5075443;28;19912;-76
2022/05/14 02:10:00;;;;;;;;;;;11.70;99.90;;;;;;5075578;28;19915;-77
2022/05/14 02:12:26;;;;;;;;;;;11.60;99.90;;;;;;5074157;28;19904;-77
2022/05/14 02:14:51;;;;;;;;;;;11.60;99.90;;;;;;5075453;28;20267;-77
2022/05/14 02:17:17;;;;;;;;;;;11.60;99.90;;;;;;5075008;28;20302;-77
2022/05/14 02:19:42;;;;;;;;;;;11.50;99.90;;;;;;5075338;28;19999;-76
2022/05/14 02:22:08;;;;;;;;;;;11.50;99.90;;;;;;5075194;28;19901;-77
2022/05/14 02:24:35;;;;;;;;;;;11.40;99.90;;;;;;5075146;28;19904;-76
2022/05/14 02:27:00;;;;;;;;;;;11.50;99.90;;;;;;5075190;28;19912;-76
2022/05/14 02:29:26;;;;;;;;;;;11.40;99.90;;;;;;5075264;28;19904;-77
2022/05/14 02:31:52;;;;;;;;;;;11.50;99.90;;;;;;5075187;28;20260;-76
2022/05/14 02:34:17;;;;;;;;;;;11.50;99.90;;;;;;5075059;28;20377;-76
2022/05/14 02:36:43;;;;;;;;;;;11.40;99.90;;;;;;5074868;28;19999;-76
2022/05/14 02:39:09;;;;;;;;;;;11.30;99.90;;;;;;5074797;28;19990;-76
2022/05/14 02:41:35;;;;;;;;;;;11.20;99.90;;;;;;5075078;28;19958;-76
2022/05/14 02:44:00;;;;;;;;;;;11.20;99.90;;;;;;5074828;28;19905;-76
2022/05/14 02:46:26;;;;;;;;;;;11.20;99.90;;;;;;5073738;28;19989;-76
2022/05/14 02:48:52;;;;;;;;;;;11.10;99.90;;;;;;5074046;28;20374;-76
2022/05/14 02:51:17;;;;;;;;;;;11.10;99.90;;;;;;5074510;28;19917;-76
2022/05/14 02:53:42;;;;;;;;;;;11.10;99.90;;;;;;5074740;28;19999;-76
2022/05/14 02:56:08;;;;;;;;;;;11.10;99.90;;;;;;5074300;28;19911;-76
2022/05/14 03:01:18;;;;;;;;;;;11.00;99.90;;;;;;5074611;28;20365;-77
2022/05/14 03:03:43;;;;;;;;;;;11.10;99.90;;;;;;5074283;28;19998;-77
2022/05/14 03:06:09;;;;;;;;;;;11.00;99.90;;;;;;5074165;28;19962;-77
2022/05/14 03:08:36;;;;;;;;;;;11.00;99.90;;;;;;5073066;28;19905;-77
2022/05/14 03:11:02;;;;;;;;;;;11.00;99.90;;;;;;5074467;28;19905;-77
2022/05/14 03:13:27;;;;;;;;;;;11.10;99.90;;;;;;5073078;28;19905;-77
2022/05/14 03:15:53;;;;;;;;;;;11.10;99.90;;;;;;5073162;28;19914;-77
2022/05/14 03:18:19;;;;;;;;;;;11.10;99.90;;;;;;5074024;28;19917;-78
2022/05/14 03:20:45;;;;;;;;;;;11.10;99.90;;;;;;5074093;28;19915;-78
2022/05/14 03:23:11;;;;;;;;;;;11.00;99.90;;;;;;5074018;28;20408;-77
2022/05/14 03:25:37;;;;;;;;;;;11.00;99.90;;;;;;5074015;28;19931;-77
2022/05/14 03:28:02;;;;;;;;;;;11.10;99.90;;;;;;5073910;28;19909;-77
2022/05/14 03:30:28;;;;;;;;;;;11.00;99.90;;;;;;5072717;28;19907;-77
2022/05/14 03:32:54;;;;;;;;;;;11.00;99.90;;;;;;5073975;28;19916;-77
2022/05/14 03:35:19;;;;;;;;;;;11.00;99.90;;;;;;5073948;28;19911;-77
2022/05/14 03:37:45;;;;;;;;;;;11.00;99.90;;;;;;5073650;28;19916;-77
2022/05/14 03:40:11;;;;;;;;;;;10.90;99.90;;;;;;5072476;28;20367;-77
2022/05/14 03:42:37;;;;;;;;;;;10.90;99.90;;;;;;5073718;28;20374;-77
2022/05/14 03:45:03;;;;;;;;;;;10.90;99.90;;;;;;5073504;28;19905;-77
2022/05/14 03:47:29;;;;;;;;;;;10.90;99.90;;;;;;5072423;28;19908;-77
2022/05/14 03:49:54;;;;;;;;;;;10.90;99.90;;;;;;5073462;28;19912;-77
2022/05/14 03:52:20;;;;;;;;;;;10.90;99.90;;;;;;5073486;28;19923;-77
2022/05/14 03:54:46;;;;;;;;;;;10.90;99.90;;;;;;5073369;28;19912;-76
2022/05/14 03:57:12;;;;;;;;;;;10.80;99.90;;;;;;5073263;28;19912;-77
2022/05/14 03:59:37;;;;;;;;;;;10.80;99.90;;;;;;5072408;28;20003;-77
2022/05/14 04:02:03;;;;;;;;;;;10.80;99.90;;;;;;5073211;28;19954;-77
2022/05/14 04:04:30;;;;;;;;;;;10.90;99.90;;;;;;5073254;28;19904;-77
2022/05/14 04:06:56;;;;;;;;;;;11.00;99.90;;;;;;5073463;28;19911;-76
2022/05/14 04:09:21;;;;;;;;;;;11.00;99.90;;;;;;5073172;28;20003;-77
2022/05/14 04:11:47;;;;;;;;;;;11.00;99.90;;;;;;5073183;28;19904;-77
2022/05/14 04:14:12;;;;;;;;;;;11.00;99.90;;;;;;5073054;28;20400;-77
2022/05/14 04:16:38;;;;;;;;;;;11.10;99.90;;;;;;5073091;28;19904;-77
2022/05/14 04:19:03;;;;;;;;;;;11.10;99.90;;;;;;5073089;28;19913;-77
2022/05/14 04:21:29;;;;;;;;;;;11.20;99.90;;;;;;5072978;28;19904;-77
2022/05/14 04:23:55;;;;;;;;;;;11.30;99.90;;;;;;5072972;28;19911;-77
2022/05/14 04:26:22;;;;;;;;;;;11.30;99.90;;;;;;5071921;28;19904;-77
2022/05/14 04:28:48;;;;;;;;;;;11.30;99.90;;;;;;5072954;28;20318;-77
2022/05/14 04:31:13;;;;;;;;;;;11.30;99.90;;;;;;5072840;28;19911;-76
2022/05/14 04:33:39;;;;;;;;;;;11.40;99.90;;;;;;5071188;28;19912;-77
2022/05/14 04:36:05;;;;;;;;;;;11.40;99.90;;;;;;5072801;28;19904;-77
2022/05/14 04:38:30;;;;;;;;;;;11.50;99.90;;;;;;5072675;28;19919;-77
2022/05/14 04:40:56;;;;;;;;;;;11.60;99.90;;;;;;5071477;28;20327;-77
2022/05/14 04:43:21;;;;;;;;;;;11.60;99.90;;;;;;5072926;28;19911;-77
2022/05/14 04:45:47;;;;;;;;;;;11.70;99.90;;;;;;5071465;28;19904;-77
2022/05/14 04:48:12;;;;;;;;;;;11.70;99.90;;;;;;5072723;28;20421;-80
2022/05/14 04:50:38;;;;;;;;;;;11.90;99.90;;;;;;5071515;28;19912;-79
2022/05/14 04:53:04;;;;;;;;;;;12.50;99.90;;;;;;5077507;28;19958;-80
2022/05/14 04:55:30;;;;;;;;;;;12.90;99.90;;;;;;5071825;28;19908;-78
2022/05/14 04:57:56;;;;;;;;;;;13.50;99.90;;;;;;5072288;28;19909;-78
2022/05/14 05:00:22;;;;;;;;;;;13.80;99.90;;;;;;5071200;28;19904;-79
2022/05/14 05:05:32;;;;;;;;;;;14.60;99.90;;;;;;5072479;28;20000;-78
2022/05/14 05:07:58;;;;;;;;;;;14.90;99.90;;;;;;5072305;28;19940;-79
2022/05/14 05:10:23;;;;;;;;;;;15.20;99.90;;;;;;5071955;28;19910;-78
2022/05/14 05:12:49;;;;;;;;;;;15.40;99.90;;;;;;5071169;28;19912;-79
2022/05/14 05:15:14;;;;;;;;;;;15.40;99.90;;;;;;5071120;28;19905;-79
2022/05/14 05:17:40;;;;;;;;;;;15.40;99.90;;;;;;5071040;28;19920;-78
2022/05/14 05:20:06;;;;;;;;;;;15.40;99.90;;;;;;5071144;28;19908;-77
2022/05/14 05:22:32;;;;;;;;;;;15.40;99.90;;;;;;5071116;28;19911;-77
2022/05/14 05:24:57;;;;;;;;;;;15.30;99.90;;;;;;5072001;28;19904;-77
2022/05/14 05:27:23;;;;;;;;;;;15.30;99.90;;;;;;5071984;28;20319;-77
2022/05/14 05:29:48;;;;;;;;;;;15.30;99.90;;;;;;5071811;28;19908;-77
2022/05/14 05:32:14;;;;;;;;;;;15.30;99.90;;;;;;5072024;28;19927;-77
2022/05/14 05:34:40;;;;;;;;;;;15.30;99.90;;;;;;5072233;28;19908;-77
2022/05/14 05:37:05;;;;;;;;;;;15.40;99.90;;;;;;5072046;28;19962;-77
2022/05/14 05:39:31;;;;;;;;;;;15.50;99.90;;;;;;5070796;28;19964;-76
2022/05/14 05:41:58;;;;;;;;;;;15.70;99.60;;;;;;5072010;28;19915;-77
2022/05/14 05:44:25;;;;;;;;;;;15.90;98.10;;;;;;5072267;28;19946;-77
2022/05/14 05:46:51;;;;;;;;;;;16.10;96.70;;;;;;5071499;28;19950;-78
2022/05/14 05:49:16;;;;;;;;;;;16.30;96.20;;;;;;5071879;28;19912;-77
2022/05/14 05:51:42;;;;;;;;;;;16.40;93.70;;;;;;5071891;28;20433;-77
2022/05/14 05:57:05;;;;;;;;;;;16.80;92.90;;;;;;5048676;28;19904;-77
2022/05/14 05:59:32;;;;;;;;;;;17.00;92.60;;;;;;5071969;28;19915;-77
2022/05/14 06:01:58;;;;;;;;;;;17.00;91.60;;;;;;5071526;28;20003;-77
2022/05/14 06:04:24;;;;;;;;;;;17.20;91.50;;;;;;5071815;28;20386;-78
2022/05/14 06:06:50;;;;;;;;;;;17.30;91.60;;;;;;5071865;28;19944;-78
2022/05/14 06:09:20;;;;;;;;;;;17.40;91.30;;;;;;5071814;28;19951;-82
2022/05/14 06:11:46;;;;;;;;;;;17.60;90.50;;;;;;5070472;28;19905;-74
2022/05/14 06:14:12;;;;;;;;;;;17.80;90.80;;;;;;5071714;28;19911;-75
2022/05/14 06:16:38;;;;;;;;;;;18.00;89.80;;;;;;5071888;28;19912;-74
2022/05/14 06:19:04;;;;;;;;;;;18.20;87.70;;;;;;5071908;28;20003;-74
2022/05/14 06:21:30;;;;;;;;;;;18.20;84.20;;;;;;5071734;28;19905;-74
2022/05/14 06:23:55;;;;;;;;;;;18.50;85.30;;;;;;5074032;28;19911;-75
2022/05/14 06:26:21;;;;;;;;;;;18.60;84.30;;;;;;5075191;28;19926;-74
2022/05/14 06:28:46;;;;;;;;;;;18.70;84.60;;;;;;5075271;28;19910;-74
2022/05/14 06:31:12;;;;;;;;;;;18.80;81.90;;;;;;5075381;28;19904;-75
2022/05/14 06:33:37;;;;;;;;;;;18.90;83.00;;;;;;5075132;28;19947;-75
2022/05/14 06:36:03;;;;;;;;;;;19.10;80.70;;;;;;5075267;28;19908;-74
2022/05/14 06:38:28;;;;;;;;;;;19.00;77.80;;;;;;5075056;28;19916;-74
2022/05/14 06:40:54;;;;;;;;;;;19.10;81.20;;;;;;5074151;28;19970;-74
2022/05/14 06:43:20;;;;;;;;;;;19.40;84.40;;;;;;5074934;28;19930;-80
2022/05/14 06:45:45;;;;;;;;;;;19.60;79.60;;;;;;5074019;28;20000;-82
2022/05/14 06:48:11;;;;;;;;;;;19.70;77.60;;;;;;5075799;28;19904;-82
2022/05/14 06:50:39;;;;;;;;;;;19.80;77.00;;;;;;5074229;28;19908;-84
2022/05/14 06:53:04;;;;;;;;;;;19.90;78.60;;;;;;5073936;28;19912;-81
2022/05/14 06:55:34;;;;;;;;;;;20.10;75.60;;;;;;5075073;28;19916;-81
2022/05/14 06:58:00;;;;;;;;;;;20.10;75.30;;;;;;5075180;28;20346;-83
2022/05/14 07:00:25;;;;;;;;;;;20.40;75.90;;;;;;5074171;28;19951;-84
2022/05/14 07:02:51;;;;;;;;;;;20.20;74.40;;;;;;5073982;28;19911;-82
2022/05/14 07:08:01;;;;;;;;;;;20.40;75.50;;;;;;5075074;28;19911;-82
2022/05/14 07:10:27;;;;;;;;;;;20.50;76.20;;;;;;5074476;28;19900;-82
2022/05/14 07:12:55;;;;;;;;;;;20.60;73.30;;;;;;5073076;28;20045;-80
2022/05/14 07:15:21;;;;;;;;;;;20.60;75.20;;;;;;5073581;28;20413;-82
2022/05/14 07:17:46;;;;;;;;;;;20.60;73.40;;;;;;5072814;28;19974;-81
2022/05/14 07:20:12;;;;;;;;;;;20.60;70.90;;;;;;5073053;28;19909;-80
2022/05/14 07:22:37;;;;;;;;;;;20.50;70.50;;;;;;5073269;28;19904;-81
2022/05/14 07:25:03;;;;;;;;;;;20.60;72.10;;;;;;5073619;28;20362;-81
2022/05/14 07:27:29;;;;;;;;;;;20.70;70.90;;;;;;5074681;28;19908;-81
2022/05/14 07:29:54;;;;;;;;;;;20.90;72.10;;;;;;5076308;28;19911;-81
2022/05/14 07:32:20;;;;;;;;;;;21.00;70.70;;;;;;5078760;28;19909;-80
2022/05/14 07:34:45;;;;;;;;;;;21.10;72.30;;;;;;5078952;28;19905;-80
2022/05/14 07:37:16;;;;;;;;;;;21.20;71.80;;;;;;5077868;28;19908;-80
2022/05/14 07:39:48;;;;;;;;;;;21.10;68.80;;;;;;5072716;28;19952;-80
2022/05/14 07:42:16;;;;;;;;;;;21.20;69.60;;;;;;5072861;28;19944;-80
2022/05/14 07:44:43;;;;;;;;;;;21.30;70.20;;;;;;5073755;28;20352;-80
2022/05/14 07:47:10;;;;;;;;;;;21.50;76.70;;;;;;5072560;28;19905;-81
2022/05/14 07:49:35;;;;;;;;;;;21.80;74.00;;;;;;5073898;28;19908;-80
2022/05/14 07:52:01;;;;;;;;;;;21.90;80.20;;;;;;5073312;28;20054;-80
2022/05/14 07:54:28;;;;;;;;;;;22.20;80.50;;;;;;5072464;28;19908;-81
2022/05/14 07:56:55;;;;;;;;;;;22.20;73.90;;;;;;5071752;28;19958;-80
2022/05/14 07:59:20;;;;;;;;;;;22.30;71.70;;;;;;5071947;28;19919;-81
2022/05/14 08:01:46;;;;;;;;;;;22.20;71.60;;;;;;5072309;28;19904;-81
2022/05/14 08:04:12;;;;;;;;;;;22.20;69.40;;;;;;5072379;28;20325;-80
2022/05/14 08:06:37;;;;;;;;;;;22.10;67.40;;;;;;5072203;28;20027;-80
2022/05/14 08:09:03;;;;;;;;;;;22.10;69.20;;;;;;5072105;28;20011;-81
2022/05/14 08:11:28;;;;;;;;;;;22.20;69.90;;;;;;5072188;28;20260;-79
2022/05/14 08:13:54;;;;;;;;;;;22.30;68.70;;;;;;5073337;28;19913;-80
2022/05/14 08:16:21;;;;;;;;;;;22.40;66.80;;;;;;5072025;28;19904;-80
2022/05/14 08:18:46;;;;;;;;;;;22.20;63.50;;;;;;5073278;28;19955;-80
2022/05/14 08:26:40;;;;;;;;;;;22.30;67.60;;;;;;5072908;28;20432;-80
2022/05/14 08:29:06;;;;;;;;;;;22.60;70.40;;;;;;5071777;28;19951;-80
2022/05/14 08:31:31;;;;;;;;;;;22.90;69.10;;;;;;5072722;28;19957;-80
2022/05/14 08:33:57;;;;;;;;;;;22.90;68.30;;;;;;5071386;28;19904;-79
2022/05/14 08:36:22;;;;;;;;;;;23.00;68.80;;;;;;5071715;28;20270;-80
2022/05/14 08:38:48;;;;;;;;;;;23.10;69.50;;;;;;5071140;28;19920;-80
2022/05/14 08:41:15;;;;;;;;;;;23.10;69.50;;;;;;5071400;28;20313;-80
2022/05/14 08:43:43;;;;;;;;;;;23.20;70.10;;;;;;5072546;28;19905;-80
2022/05/14 08:46:11;;;;;;;;;;;23.30;69.70;;;;;;5070471;28;19999;-81
2022/05/14 08:48:37;;;;;;;;;;;23.40;73.00;;;;;;5072853;28;19910;-80
2022/05/14 08:51:05;;;;;;;;;;;23.40;65.70;;;;;;5071202;28;19916;-80
2022/05/14 08:53:32;;;;;;;;;;;23.40;64.70;;;;;;5072458;28;19914;-79
2022/05/14 08:55:57;;;;;;;;;;;23.30;65.20;;;;;;5071302;28;19908;-81
2022/05/14 08:58:41;;;;;;;;;;;23.30;66.20;;;;;;5072639;28;20432;-81
2022/05/14 09:01:07;;;;;;;;;;;23.40;67.70;;;;;;5088181;28;19958;-81
2022/05/14 09:03:32;;;;;;;;;;;23.50;66.50;;;;;;5071446;28;19905;-82
2022/05/14 09:05:58;;;;;;;;;;;23.40;65.20;;;;;;5071405;28;19905;-79
2022/05/14 09:08:24;;;;;;;;;;;23.20;68.50;;;;;;5071378;28;19939;-78
2022/05/14 09:10:55;;;;;;;;;;;23.30;68.00;;;;;;5072828;28;19905;-78
2022/05/14 09:13:22;;;;;;;;;;;23.10;65.20;;;;;;5072642;28;19905;-79
2022/05/14 09:15:49;;;;;;;;;;;23.20;66.70;;;;;;5072615;28;19947;-78
2022/05/14 09:18:21;;;;;;;;;;;23.30;68.00;;;;;;5071080;28;19912;-79
2022/05/14 09:20:48;;;;;;;;;;;23.50;68.40;;;;;;5088156;28;19947;-78
2022/05/14 09:23:24;;;;;;;;;;;23.50;66.00;;;;;;5072556;28;19904;-79
2022/05/14 09:25:50;;;;;;;;;;;23.30;64.80;;;;;;5071261;28;19908;-79
2022/05/14 09:28:31;;;;;;;;;;;23.40;67.00;;;;;;5071216;28;20403;-80
2022/05/14 09:30:58;;;;;;;;;;;23.40;66.10;;;;;;5087973;28;19911;-79
2022/05/14 09:33:27;;;;;;;;;;;23.50;65.60;;;;;;5072363;28;20391;-80
2022/05/14 09:35:53;;;;;;;;;;;23.50;65.20;;;;;;5072436;28;19904;-80
2022/05/14 09:38:22;;;;;;;;;;;23.50;67.30;;;;;;5071012;28;19987;-79
2022/05/14 09:40:48;;;;;;;;;;;23.50;65.70;;;;;;5071126;28;19947;-80
2022/05/14 09:43:16;;;;;;;;;;;23.60;65.60;;;;;;5072221;28;19993;-79
2022/05/14 09:45:57;;;;;;;;;;;23.40;65.10;;;;;;5087977;28;19912;-80
2022/05/14 09:48:28;;;;;;;;;;;23.50;66.50;;;;;;5072208;28;19912;-79
2022/05/14 09:50:59;;;;;;;;;;;23.50;66.00;;;;;;5070498;28;19912;-81
2022/05/14 09:53:44;;;;;;;;;;;23.60;66.60;;;;;;5070795;28;19908;-80
2022/05/14 09:56:10;;;;;;;;;;;23.80;65.80;;;;;;5071271;28;19904;-81
2022/05/14 09:58:48;;;;;;;;;;;23.90;62.90;;;;;;5075274;28;19913;-81
2022/05/14 10:01:26;;;;;;;;;;;23.80;62.20;;;;;;5075654;28;20343;-80
2022/05/14 10:04:01;;;;;;;;;;;23.60;63.70;;;;;;5075731;28;19905;-81
2022/05/14 10:06:40;;;;;;;;;;;23.70;65.50;;;;;;5075677;28;19999;-81
2022/05/14 10:09:06;;;;;;;;;;;23.90;63.70;;;;;;5074266;28;19905;-82
2022/05/14 10:11:33;;;;;;;;;;;24.00;67.00;;;;;;5075827;28;19931;-80
2022/05/14 10:14:08;;;;;;;;;;;24.10;64.70;;;;;;5075359;28;20005;-81
2022/05/14 10:16:37;;;;;;;;;;;24.10;67.50;;;;;;5075432;28;19904;-80
2022/05/14 10:19:21;;;;;;;;;;;24.30;69.80;;;;;;5075182;28;20416;-80
2022/05/14 10:21:56;;;;;;;;;;;24.40;68.10;;;;;;5075396;28;20007;-81
2022/05/14 10:27:28;;;;;;;;;;;24.30;71.30;;;;;;5075033;28;19957;-80
2022/05/14 10:29:54;;;;;;;;;;;24.30;66.60;;;;;;5074924;28;19927;-81
2022/05/14 10:32:19;;;;;;;;;;;24.30;66.60;;;;;;5090615;28;20411;-80
2022/05/14 10:34:45;;;;;;;;;;;24.30;67.20;;;;;;5075148;28;19915;-80
2022/05/14 10:37:14;;;;;;;;;;;24.40;66.20;;;;;;5090589;28;19914;-81
2022/05/14 10:39:50;;;;;;;;;;;24.40;66.40;;;;;;5075077;28;19948;-80
2022/05/14 10:42:19;;;;;;;;;;;24.70;66.50;;;;;;5073803;28;19970;-79
2022/05/14 10:45:00;;;;;;;;;;;24.70;63.90;;;;;;5074870;28;19958;-81
2022/05/14 10:47:26;;;;;;;;;;;24.80;65.70;;;;;;5074830;28;19948;-80
2022/05/14 10:49:59;;;;;;;;;;;24.60;67.80;;;;;;5073656;28;19916;-81
2022/05/14 10:52:25;;;;;;;;;;;24.60;63.50;;;;;;5073156;28;19970;-81
2022/05/14 10:54:51;;;;;;;;;;;24.80;69.10;;;;;;5073381;28;19904;-81
2022/05/14 10:57:19;;;;;;;;;;;24.80;63.20;;;;;;5073193;28;20394;-81
2022/05/14 10:59:47;;;;;;;;;;;24.80;63.00;;;;;;5090324;28;20315;-81
2022/05/14 11:02:15;;;;;;;;;;;24.90;63.90;;;;;;5074419;28;19999;-82
2022/05/14 11:04:42;;;;;;;;;;;24.90;63.30;;;;;;5073302;28;19911;-82
2022/05/14 11:07:09;;;;;;;;;;;24.80;63.30;;;;;;5074251;28;19908;-82
2022/05/14 11:09:45;;;;;;;;;;;24.60;64.80;;;;;;5072771;28;19951;-81
2022/05/14 11:12:19;;;;;;;;;;;24.40;64.80;;;;;;5073059;28;19904;-81
2022/05/14 11:14:51;;;;;;;;;;;24.40;64.30;;;;;;5090404;28;19905;-81
2022/05/14 11:17:26;;;;;;;;;;;24.60;64.90;;;;;;5073061;28;19904;-81
2022/05/14 11:20:04;;;;;;;;;;;24.70;62.80;;;;;;5090108;28;19908;-82
2022/05/14 11:22:39;;;;;;;;;;;24.70;63.70;;;;;;5089873;28;20370;-80
2022/05/14 11:25:14;;;;;;;;;;;24.80;64.10;;;;;;5089907;28;19908;-81
2022/05/14 11:27:40;;;;;;;;;;;25.00;66.30;;;;;;5074215;28;20011;-80
2022/05/14 11:30:07;;;;;;;;;;;25.10;72.00;;;;;;5072189;28;19911;-80
2022/05/14 11:32:45;;;;;;;;;;;25.10;70.10;;;;;;5074062;28;20310;-80
2022/05/14 11:35:11;;;;;;;;;;;25.20;71.80;;;;;;5073014;28;20367;-80
2022/05/14 11:37:39;;;;;;;;;;;25.30;65.10;;;;;;5072659;28;19959;-80
2022/05/14 11:40:26;;;;;;;;;;;25.30;63.30;;;;;;5072641;28;19960;-80
2022/05/14 11:43:30;;;;;;;;;;;25.30;64.80;;;;;;5072657;28;19991;-80
2022/05/14 11:46:21;;;;;;;;;;;25.20;65.40;;;;;;5031839;28;19905;-80
2022/05/14 11:48:49;;;;;;;;;;;25.30;66.10;;;;;;5015078;28;20364;-81
2022/05/14 11:51:34;;;;;;;;;;;25.40;68.90;;;;;;5051194;28;19994;-81
2022/05/14 11:54:05;;;;;;;;;;;25.50;63.70;;;;;;5089310;28;20017;-81
2022/05/14 11:56:44;;;;;;;;;;;25.30;62.60;;;;;;5072253;28;19908;-80
2022/05/14 11:59:17;;;;;;;;;;;25.50;66.40;;;;;;5073589;28;19982;-81
2022/05/14 12:01:44;;;;;;;;;;;25.50;64.00;;;;;;5072430;28;19909;-80
2022/05/14 12:04:17;;;;;;;;;;;25.50;73.80;;;;;;5072393;28;20283;-81
2022/05/14 12:06:57;;;;;;;;;;;25.40;73.00;;;;;;5072385;28;19912;-80
2022/05/14 12:09:26;;;;;;;;;;;25.60;73.90;;;;;;5072254;28;20343;-81
2022/05/14 12:12:03;;;;;;;;;;;25.60;69.70;;;;;;5089464;28;20042;-81
2022/05/14 12:14:30;;;;;;;;;;;25.60;70.80;;;;;;5073357;28;19905;-81
2022/05/14 12:16:57;;;;;;;;;;;25.80;74.40;;;;;;5072232;28;19961;-81
2022/05/14 12:19:24;;;;;;;;;;;25.70;75.20;;;;;;5071981;28;19916;-81
2022/05/14 12:21:51;;;;;;;;;;;26.00;66.90;;;;;;5071079;28;19930;-81
2022/05/14 12:24:17;;;;;;;;;;;26.10;65.20;;;;;;5071921;28;19904;-81
2022/05/14 12:26:43;;;;;;;;;;;26.20;67.90;;;;;;5072181;28;19910;-81
2022/05/14 12:29:14;;;;;;;;;;;26.30;63.40;;;;;;5071899;28;19994;-81
2022/05/14 12:34:31;;;;;;;;;;;26.60;64.00;;;;;;5073354;28;19911;-81
2022/05/14 12:36:57;;;;;;;;;;;26.60;61.60;;;;;;5072922;28;19908;-81
2022/05/14 12:39:27;;;;;;;;;;;26.70;61.60;;;;;;5070934;28;19912;-82
2022/05/14 12:42:04;;;;;;;;;;;26.60;61.40;;;;;;5071572;28;20359;-83
2022/05/14 12:44:32;;;;;;;;;;;26.50;62.00;;;;;;5072815;28;19904;-82
2022/05/14 12:46:59;;;;;;;;;;;26.20;62.70;;;;;;5071631;28;20245;-82
2022/05/14 12:49:27;;;;;;;;;;;26.30;63.40;;;;;;5071388;28;19905;-81
2022/05/14 12:51:54;;;;;;;;;;;26.10;62.40;;;;;;5071249;28;19916;-81
2022/05/14 12:54:30;;;;;;;;;;;25.90;62.60;;;;;;5070620;28;19909;-81
2022/05/14 12:56:58;;;;;;;;;;;25.60;63.90;;;;;;5072660;28;19948;-82
2022/05/14 12:59:23;;;;;;;;;;;25.50;63.30;;;;;;5072723;28;19989;-81
2022/05/14 13:01:50;;;;;;;;;;;25.40;64.20;;;;;;5071424;28;19912;-82
2022/05/14 13:04:18;;;;;;;;;;;25.30;64.00;;;;;;5072469;28;19965;-81
2022/05/14 13:06:45;;;;;;;;;;;25.30;64.70;;;;;;5071477;28;19999;-81
2022/05/14 13:09:16;;;;;;;;;;;25.30;64.80;;;;;;5071155;28;19947;-81
2022/05/14 13:11:47;;;;;;;;;;;25.30;64.70;;;;;;5072352;28;19905;-81
2022/05/14 13:14:23;;;;;;;;;;;25.40;64.60;;;;;;5072646;28;19905;-82
2022/05/14 13:17:03;;;;;;;;;;;25.50;65.70;;;;;;5071162;28;19944;-82
2022/05/14 13:19:39;;;;;;;;;;;25.70;66.20;;;;;;5070348;28;19920;-81
2022/05/14 13:22:08;;;;;;;;;;;25.80;63.70;;;;;;5072527;28;19987;-81
2022/05/14 13:24:34;;;;;;;;;;;25.70;63.70;;;;;;5071362;28;19904;-81
2022/05/14 13:27:01;;;;;;;;;;;25.40;63.70;;;;;;5071146;28;19911;-81
2022/05/14 13:29:37;;;;;;;;;;;25.20;70.70;;;;;;5072454;28;19958;-81
2022/05/14 13:32:13;;;;;;;;;;;25.00;64.70;;;;;;5072000;28;19995;-81
2022/05/14 13:37:26;;;;;;;;;;;25.20;66.30;;;;;;5076491;28;19958;-81
2022/05/14 13:39:53;;;;;;;;;;;25.40;65.70;;;;;;5075062;28;20012;-81
2022/05/14 13:42:26;;;;;;;;;;;25.50;66.20;;;;;;5075126;28;19958;-81
2022/05/14 13:45:12;;;;;;;;;;;25.70;66.60;;;;;;5075239;28;20009;-82
2022/05/14 13:47:40;;;;;;;;;;;25.80;64.80;;;;;;5067633;28;19958;-81
2022/05/14 13:50:06;;;;;;;;;;;25.70;64.90;;;;;;5075088;28;19909;-81
2022/05/14 13:52:34;;;;;;;;;;;25.60;64.70;;;;;;5074789;28;20351;-82
2022/05/14 13:55:01;;;;;;;;;;;25.50;65.50;;;;;;5074994;28;19904;-82
2022/05/14 13:57:26;;;;;;;;;;;25.50;64.40;;;;;;5075262;28;20075;-81
2022/05/14 14:00:28;;;;;;;;;;;25.50;64.10;;;;;;5081371;28;20022;-80
2022/05/14 14:02:57;;;;;;;;;;;25.40;65.20;;;;;;5073389;28;20010;-79
2022/05/14 14:05:23;;;;;;;;;;;25.50;66.10;;;;;;5092131;28;19908;-79
2022/05/14 14:07:48;;;;;;;;;;;25.70;65.80;;;;;;5094305;28;19923;-75
2022/05/14 14:10:21;;;;;;;;;;;25.70;64.50;;;;;;5095781;28;19904;-77
2022/05/14 14:12:47;;;;;;;;;;;25.80;64.40;;;;;;5095794;28;19908;-76
2022/05/14 14:15:18;;;;;;;;;;;25.90;64.00;;;;;;5096026;28;19904;-77
2022/05/14 14:17:45;;;;;;;;;;;26.00;64.20;;;;;;5095700;28;19908;-77
2022/05/14 14:20:11;;;;;;;;;;;25.90;63.70;;;;;;5094906;28;19914;-77
2022/05/14 14:22:38;;;;;;;;;;;25.80;65.10;;;;;;5095825;28;19911;-75
2022/05/14 14:25:04;;;;;;;;;;;25.70;65.50;;;;;;5095584;28;20259;-77
2022/05/14 14:27:29;;;;;;;;;;;25.60;64.80;;;;;;5064819;28;20273;-77
2022/05/14 14:29:57;;;;;;;;;;;25.60;65.80;;;;;;5055553;28;19911;-77
2022/05/14 14:32:24;;;;;;;;;;;25.50;65.50;;;;;;5055267;28;19909;-76
2022/05/14 14:34:50;;;;;;;;;;;25.40;66.80;;;;;;5055366;28;19908;-76
2022/05/14 14:37:16;;;;;;;;;;;25.40;66.00;;;;;;5055232;28;19911;-77
2022/05/14 14:39:41;;;;;;;;;;;25.30;65.40;;;;;;5055242;28;19921;-77
2022/05/14 14:42:09;;;;;;;;;;;25.20;65.00;;;;;;5055118;28;19909;-77
2022/05/14 14:44:34;;;;;;;;;;;25.20;66.70;;;;;;5052724;28;19905;-76
2022/05/14 14:47:00;;;;;;;;;;;25.20;66.80;;;;;;5053730;28;19904;-76
2022/05/14 14:49:25;;;;;;;;;;;25.20;66.20;;;;;;5058042;28;19905;-77
2022/05/14 14:51:51;;;;;;;;;;;25.20;65.70;;;;;;5093623;28;19915;-77